Aviation Digital Data Service (ADDS)

Output produced by METARs form (1923 UTC 23 June 2018)
found at http://aviationweather.gov/adds/metars/
 
METAR text: KCVH 231915Z AUTO VRB05KT 10SM CLR 34/10 A2975 RMK A01
Conditions at: KCVH (HOLLISTER MUNI , CA, US) observed 1915 UTC 23 June 2018
Temperature: 34.0°C (93°F)
Dewpoint: 10.0°C (50°F) [RH = 23%]
Pressure (altimeter): 29.75 inches Hg (1007.5 mb)
Winds: variable direction winds at 6 MPH (5 knots; 2.6 m/s)
Visibility: 10 or more miles (16+ km)
Ceiling: at least 12,000 feet AGL
Clouds: sky clear below 12,000 feet AGL
Weather: automated observation with no human augmentation;
there may or may not be significant weather present at this time